Time;durP1;ratioP1;P1;durP2;ratioP2;P2;SDS_P1;SDS_P2;PMS_P1;PMS_P2;Temp;Humidity;BMP_temperature;BMP_pressure;BME280_temperature;BME280_humidity;BME280_pressure;Samples;Min_cycle;Max_cycle;Signal;HPM_P1;HPM_P2
2022/10/20 00:00:22;;;;;;;23.88;12.30;;;;;;;13.32;100.00;96939.69;4974695;28;20031;-69
2022/10/20 00:02:48;;;;;;;18.00;11.23;;;;;;;13.36;100.00;96933.06;4978896;28;20045;-69
2022/10/20 00:05:13;;;;;;;20.65;10.75;;;;;;;13.45;100.00;96926.44;4984500;28;20395;-69
2022/10/20 00:07:39;;;;;;;22.83;12.57;;;;;;;13.46;100.00;96933.53;4973510;28;20416;-70
2022/10/20 00:10:04;;;;;;;19.90;12.20;;;;;;;13.25;100.00;96929.38;4973146;28;20035;-69
2022/10/20 00:12:30;;;;;;;21.25;12.90;;;;;;;13.17;100.00;96930.47;4975766;28;20066;-68
2022/10/20 00:14:55;;;;;;;21.48;13.52;;;;;;;13.17;100.00;96934.00;4978347;28;20030;-69
2022/10/20 00:17:21;;;;;;;23.15;13.85;;;;;;;13.17;100.00;96916.72;4972244;28;20035;-67
2022/10/20 00:19:47;;;;;;;23.38;13.88;;;;;;;13.17;100.00;96924.97;4976947;28;20058;-68
2022/10/20 00:22:13;;;;;;;26.30;14.65;;;;;;;13.18;100.00;96921.03;4975868;28;20035;-68
2022/10/20 00:24:38;;;;;;;23.35;14.73;;;;;;;13.18;100.00;96916.34;4972782;28;20054;-68
2022/10/20 00:27:04;;;;;;;22.95;13.80;;;;;;;13.19;100.00;96926.16;4972237;28;20484;-68
2022/10/20 00:29:30;;;;;;;23.52;14.52;;;;;;;13.23;100.00;96920.72;4982012;28;20173;-68
2022/10/20 00:31:55;;;;;;;25.75;13.65;;;;;;;13.27;100.00;96913.31;4991973;28;20141;-69
2022/10/20 00:34:21;;;;;;;24.55;13.68;;;;;;;13.30;100.00;96911.75;4973415;28;20030;-68
2022/10/20 00:36:46;;;;;;;24.35;13.82;;;;;;;13.26;100.00;96906.19;4984348;28;20026;-69
2022/10/20 00:39:12;;;;;;;24.30;13.35;;;;;;;13.22;100.00;96897.13;4991978;28;20030;-68
2022/10/20 00:41:37;;;;;;;20.92;13.98;;;;;;;13.18;100.00;96893.53;4979284;28;20496;-68
2022/10/20 00:44:40;;;;;;;22.73;13.27;;;;;;;13.23;100.00;96903.41;4978858;28;20369;-68
2022/10/20 00:47:12;;;;;;;28.85;13.15;;;;;;;13.32;100.00;96898.41;4971289;28;20085;-68
2022/10/20 00:49:38;;;;;;;25.60;13.95;;;;;;;13.29;100.00;96894.44;4980254;28;20445;-68
2022/10/20 00:52:04;;;;;;;26.33;13.30;;;;;;;13.24;100.00;96900.28;4972360;28;20058;-68
2022/10/20 00:54:31;;;;;;;25.27;14.45;;;;;;;13.21;100.00;96890.03;4974076;28;20488;-68
2022/10/20 00:56:57;;;;;;;18.85;13.55;;;;;;;13.21;100.00;96881.78;4981674;28;20034;-68
2022/10/20 00:59:27;;;;;;;23.13;13.75;;;;;;;13.15;100.00;96881.34;4973952;28;20098;-68
2022/10/20 01:01:55;;;;;;;29.02;14.55;;;;;;;13.17;100.00;96880.97;4977423;28;20030;-68
2022/10/20 01:04:21;;;;;;;25.98;14.73;;;;;;;13.16;100.00;96869.19;4974399;28;20093;-68
2022/10/20 01:06:47;;;;;;;29.73;14.90;;;;;;;13.18;100.00;96874.28;4971929;28;20504;-69
2022/10/20 01:09:13;;;;;;;24.25;15.05;;;;;;;13.21;100.00;96879.03;4972155;28;20039;-69
2022/10/20 01:12:02;;;;;;;24.63;14.77;;;;;;;13.23;100.00;96884.16;4970538;28;20070;-69
2022/10/20 01:14:46;;;;;;;28.45;14.13;;;;;;;13.21;100.00;96881.78;4980279;28;20022;-68
2022/10/20 01:17:25;;;;;;;21.88;14.07;;;;;;;13.22;100.00;96882.56;4972794;28;20031;-68
2022/10/20 01:20:17;;;;;;;29.17;14.47;;;;;;;13.22;100.00;96888.88;4972507;28;20038;-68
2022/10/20 01:23:42;;;;;;;25.38;15.05;;;;;;;13.24;100.00;96880.25;4972217;28;20307;-69
2022/10/20 01:26:07;;;;;;;26.75;13.73;;;;;;;13.21;100.00;96873.53;4915846;29;20032;-68
2022/10/20 01:28:46;;;;;;;26.40;14.55;;;;;;;13.18;100.00;96864.09;4951389;28;20105;-68
2022/10/20 01:31:25;;;;;;;22.58;14.10;;;;;;;13.17;100.00;96865.25;4953322;28;20118;-68
2022/10/20 01:33:58;;;;;;;23.43;14.00;;;;;;;13.17;100.00;96861.72;4953094;28;20032;-68
2022/10/20 01:36:36;;;;;;;24.55;14.23;;;;;;;13.16;100.00;96868.38;4952512;28;20035;-68
2022/10/20 01:39:11;;;;;;;23.63;14.55;;;;;;;13.17;100.00;96858.97;4975992;28;20645;-68
2022/10/20 01:41:49;;;;;;;20.95;13.98;;;;;;;13.16;100.00;96857.38;4991524;28;20088;-68
2022/10/20 01:44:17;;;;;;;23.63;15.05;;;;;;;13.15;100.00;96859.34;4971319;28;20807;-68
2022/10/20 01:46:43;;;;;;;22.33;13.43;;;;;;;13.19;100.00;96851.13;4995390;28;20045;-68
2022/10/20 01:49:11;;;;;;;25.80;14.80;;;;;;;13.20;100.00;96852.72;4991588;28;20096;-68
2022/10/20 01:51:36;;;;;;;28.17;14.52;;;;;;;13.18;100.00;96852.28;4976337;28;20046;-67
2022/10/20 01:54:02;;;;;;;26.23;15.32;;;;;;;13.18;100.00;96849.53;4976183;28;20408;-68
2022/10/20 01:56:45;;;;;;;30.92;15.55;;;;;;;13.16;100.00;96851.88;4975486;28;20030;-68
2022/10/20 01:59:36;;;;;;;31.70;15.25;;;;;;;13.16;100.00;96849.13;4976126;28;20054;-67
2022/10/20 02:02:20;;;;;;;26.45;16.08;;;;;;;13.15;100.00;96851.09;4956440;28;20110;-68
2022/10/20 02:05:01;;;;;;;26.60;15.38;;;;;;;13.15;100.00;96836.56;4966531;28;20049;-68
2022/10/20 02:07:29;;;;;;;25.05;15.40;;;;;;;13.13;100.00;96836.16;4973401;28;20050;-68
2022/10/20 02:10:04;;;;;;;24.77;14.98;;;;;;;13.12;100.00;96837.31;4974559;28;20035;-68
2022/10/20 02:12:36;;;;;;;28.50;15.93;;;;;;;13.10;100.00;96834.16;4985745;28;20038;-68
2022/10/20 02:15:03;;;;;;;24.80;15.45;;;;;;;13.06;100.00;96828.63;4993486;28;20030;-68
2022/10/20 02:17:28;;;;;;;30.05;16.63;;;;;;;13.05;100.00;96837.25;4994014;28;20038;-68
2022/10/20 02:19:55;;;;;;;28.48;14.65;;;;;;;13.06;100.00;96836.09;4987869;28;20077;-69
2022/10/20 02:22:22;;;;;;;24.95;15.02;;;;;;;13.05;100.00;96838.03;4977259;28;20045;-68
2022/10/20 02:24:48;;;;;;;31.55;15.98;;;;;;;13.04;100.00;96835.69;4976083;28;20365;-68
2022/10/20 02:27:26;;;;;;;28.75;16.52;;;;;;;13.04;100.00;96830.97;4975753;28;20105;-67
2022/10/20 02:30:00;;;;;;;29.50;15.60;;;;;;;13.03;100.00;96828.59;4979679;28;20038;-68
2022/10/20 02:32:27;;;;;;;25.33;14.80;;;;;;;13.01;100.00;96821.50;4986073;28;20592;-68
2022/10/20 02:34:52;;;;;;;24.02;15.65;;;;;;;12.99;100.00;96821.09;4987522;28;20038;-68
2022/10/20 02:37:18;;;;;;;34.08;16.00;;;;;;;12.93;100.00;96817.13;4984473;28;20153;-68
2022/10/20 02:39:44;;;;;;;26.77;15.07;;;;;;;13.00;100.00;96816.41;4988784;28;20022;-68
2022/10/20 02:42:11;;;;;;;27.27;15.48;;;;;;;12.99;100.00;96817.56;4982632;28;20034;-68
2022/10/20 02:44:36;;;;;;;23.70;14.55;;;;;;;12.96;100.00;96812.84;4974727;28;20046;-68
2022/10/20 02:47:02;;;;;;;28.75;16.63;;;;;;;12.90;100.00;96814.34;4974415;28;20543;-67
2022/10/20 02:49:27;;;;;;;30.17;15.77;;;;;;;12.90;100.00;96817.09;4973602;28;20511;-68
2022/10/20 02:51:52;;;;;;;35.42;16.40;;;;;;;12.89;100.00;96812.75;4980579;28;20392;-68
2022/10/20 02:54:18;;;;;;;27.65;16.23;;;;;;;12.87;100.00;96812.34;4994764;28;20488;-68
2022/10/20 02:56:43;;;;;;;25.23;17.05;;;;;;;12.84;100.00;96813.91;4972397;28;20443;-69
2022/10/20 02:59:12;;;;;;;26.60;16.00;;;;;;;12.80;100.00;96818.56;4976245;28;20082;-68
2022/10/20 03:01:38;;;;;;;27.50;15.23;;;;;;;12.72;100.00;96812.22;4974337;28;20515;-69
2022/10/20 03:04:03;;;;;;;27.27;17.27;;;;;;;12.67;100.00;96811.78;4968413;28;20039;-68
2022/10/20 03:06:29;;;;;;;40.05;17.58;;;;;;;12.60;100.00;96816.03;4980950;28;20030;-68
2022/10/20 03:08:54;;;;;;;26.42;17.20;;;;;;;12.56;100.00;96817.16;4974358;28;20634;-68
2022/10/20 03:11:20;;;;;;;26.95;16.55;;;;;;;12.50;100.00;96813.97;4977227;28;20038;-68
2022/10/20 03:13:45;;;;;;;28.77;17.67;;;;;;;12.43;100.00;96817.41;4975813;28;20030;-68
2022/10/20 03:16:10;;;;;;;26.17;17.40;;;;;;;12.38;100.00;96817.75;4972691;28;20038;-67
2022/10/20 03:18:36;;;;;;;31.08;17.40;;;;;;;12.32;100.00;96818.50;4990076;28;20046;-67
2022/10/20 03:21:01;;;;;;;33.50;19.98;;;;;;;12.26;100.00;96817.22;4980880;28;20472;-67
2022/10/20 03:23:27;;;;;;;35.70;18.20;;;;;;;12.16;100.00;96816.72;4979885;28;20046;-67
2022/10/20 03:25:52;;;;;;;28.83;18.70;;;;;;;12.11;100.00;96816.28;4974161;28;20027;-67
2022/10/20 03:28:18;;;;;;;32.45;19.02;;;;;;;12.08;100.00;96822.50;4974007;28;20077;-67
2022/10/20 03:30:45;;;;;;;34.72;18.92;;;;;;;12.05;100.00;96819.34;4973841;28;20098;-67
2022/10/20 03:33:10;;;;;;;29.75;17.58;;;;;;;12.03;100.00;96824.41;4972239;28;20052;-67
2022/10/20 03:35:36;;;;;;;43.38;20.75;;;;;;;12.08;100.00;96820.53;4989500;28;20031;-67
2022/10/20 03:38:01;;;;;;;34.58;19.27;;;;;;;12.07;100.00;96818.97;4973866;28;20035;-68
2022/10/20 03:40:26;;;;;;;36.72;18.80;;;;;;;12.03;100.00;96813.44;4974775;28;20400;-67
2022/10/20 03:42:52;;;;;;;35.67;17.92;;;;;;;12.04;100.00;96819.72;4985020;28;20054;-68
2022/10/20 03:45:17;;;;;;;27.52;16.67;;;;;;;12.14;100.00;96810.81;4993017;28;20089;-68
2022/10/20 03:47:43;;;;;;;29.58;17.23;;;;;;;12.19;100.00;96818.72;4992823;28;20034;-68
2022/10/20 03:50:08;;;;;;;33.53;17.42;;;;;;;12.26;100.00;96812.50;4993011;28;20030;-68
2022/10/20 03:52:35;;;;;;;27.05;16.00;;;;;;;12.24;100.00;96812.09;4996521;28;20400;-68
2022/10/20 03:55:00;;;;;;;26.58;16.85;;;;;;;12.27;100.00;96814.09;4996331;28;20398;-67
2022/10/20 03:57:26;;;;;;;27.08;15.27;;;;;;;12.32;100.00;96805.53;4972184;28;20113;-68
2022/10/20 03:59:51;;;;;;;26.63;15.00;;;;;;;12.36;100.00;96811.84;4973626;28;20456;-68
2022/10/20 04:02:26;;;;;;;24.05;14.57;;;;;;;12.41;100.00;96811.53;4973327;28;20106;-67
2022/10/20 04:04:51;;;;;;;33.60;15.85;;;;;;;12.41;100.00;96797.78;4979427;28;20030;-66
2022/10/20 04:07:16;;;;;;;23.23;15.02;;;;;;;12.39;100.00;96799.34;4971709;28;20045;-66
2022/10/20 04:09:42;;;;;;;25.42;14.95;;;;;;;12.25;100.00;96802.72;4984646;28;20506;-66
2022/10/20 04:12:07;;;;;;;28.92;15.52;;;;;;;12.03;100.00;96791.47;4993974;28;20034;-67
2022/10/20 04:14:32;;;;;;;39.85;16.42;;;;;;;11.88;100.00;96786.94;4978413;28;20039;-68
2022/10/20 04:16:58;;;;;;;35.95;19.10;;;;;;;11.82;100.00;96780.19;4973554;28;20065;-66
2022/10/20 04:19:23;;;;;;;30.45;18.67;;;;;;;11.82;100.00;96791.19;4972343;28;20031;-66
2022/10/20 04:21:49;;;;;;;38.75;18.63;;;;;;;11.79;100.00;96789.16;4973585;28;20037;-66
2022/10/20 04:24:14;;;;;;;31.90;19.25;;;;;;;11.80;100.00;96782.53;4973211;28;20030;-66
2022/10/20 04:26:39;;;;;;;41.78;20.85;;;;;;;11.78;100.00;96774.66;4976350;28;20030;-66
2022/10/20 04:29:05;;;;;;;38.72;21.90;;;;;;;11.73;100.00;96779.69;4976198;28;20040;-67
2022/10/20 04:31:30;;;;;;;37.67;21.85;;;;;;;11.65;100.00;96776.84;4973277;28;20499;-68
2022/10/20 04:33:55;;;;;;;45.42;22.85;;;;;;;11.66;100.00;96783.91;4978872;28;20030;-68
2022/10/20 04:36:21;;;;;;;34.50;19.33;;;;;;;11.68;100.00;96794.50;4992463;28;20081;-68
2022/10/20 04:38:46;;;;;;;40.65;20.95;;;;;;;11.74;100.00;96798.53;4992493;28;20038;-68
2022/10/20 04:41:12;;;;;;;32.25;18.52;;;;;;;11.77;100.00;96797.78;4982168;28;20035;-68
2022/10/20 04:43:37;;;;;;;36.03;21.27;;;;;;;11.77;100.00;96794.25;4953253;28;20031;-68
2022/10/20 04:46:04;;;;;;;32.53;19.70;;;;;;;11.77;100.00;96789.53;4951572;29;20082;-68
2022/10/20 04:48:30;;;;;;;30.90;19.58;;;;;;;11.82;100.00;96797.44;4953350;28;20042;-69
2022/10/20 04:51:03;;;;;;;37.75;20.35;;;;;;;11.85;100.00;96804.94;4965944;28;20443;-69
2022/10/20 04:53:29;;;;;;;39.45;18.67;;;;;;;11.92;100.00;96803.47;4974325;28;20039;-68
2022/10/20 04:55:58;;;;;;;37.53;18.98;;;;;;;11.99;100.00;96795.31;4973762;28;20042;-68
2022/10/20 04:58:24;;;;;;;34.15;20.48;;;;;;;11.95;100.00;96803.53;4981057;28;20514;-68
2022/10/20 05:00:50;;;;;;;31.60;18.58;;;;;;;12.02;100.00;96794.59;4978574;28;20066;-68
2022/10/20 05:03:15;;;;;;;31.58;17.13;;;;;;;12.12;100.00;96795.88;4972559;28;20065;-68
2022/10/20 05:05:41;;;;;;;29.58;16.52;;;;;;;12.05;100.00;96791.09;4971042;28;20492;-68
2022/10/20 05:08:06;;;;;;;28.27;15.50;;;;;;;11.99;100.00;96779.66;4972331;28;20417;-67
2022/10/20 05:10:32;;;;;;;24.58;14.80;;;;;;;11.71;100.00;96776.53;4971723;28;20035;-67
2022/10/20 05:12:57;;;;;;;32.50;15.20;;;;;;;11.52;100.00;96770.00;4978834;28;20110;-67
2022/10/20 05:15:22;;;;;;;27.80;16.02;;;;;;;11.53;100.00;96776.28;4970865;28;20035;-68
2022/10/20 05:17:48;;;;;;;24.33;14.68;;;;;;;11.56;100.00;96773.59;4971978;28;20488;-68
2022/10/20 05:20:13;;;;;;;29.08;17.20;;;;;;;11.58;100.00;96767.75;4973177;28;20031;-67
2022/10/20 05:22:39;;;;;;;39.90;19.90;;;;;;;11.38;100.00;96756.91;4971713;28;20023;-67
2022/10/20 05:25:04;;;;;;;39.05;21.48;;;;;;;11.33;100.00;96751.72;4972130;28;20109;-68
2022/10/20 05:27:30;;;;;;;42.55;22.73;;;;;;;11.30;100.00;96752.47;4971950;28;20035;-68
2022/10/20 05:29:55;;;;;;;47.97;25.60;;;;;;;11.33;100.00;96746.25;4978416;28;20030;-68
2022/10/20 05:32:20;;;;;;;44.13;23.42;;;;;;;11.39;100.00;96743.97;4988963;28;20077;-68
2022/10/20 05:34:46;;;;;;;41.55;24.48;;;;;;;11.48;100.00;96742.53;4952809;28;20035;-68
2022/10/20 05:37:11;;;;;;;47.97;25.65;;;;;;;11.41;100.00;96733.41;4952862;28;20512;-67
2022/10/20 05:39:37;;;;;;;47.63;26.15;;;;;;;11.36;100.00;96734.53;4970856;28;20057;-67
2022/10/20 05:42:02;;;;;;;38.88;23.55;;;;;;;11.41;100.00;96736.16;4991732;28;20062;-68
2022/10/20 05:44:28;;;;;;;42.42;24.17;;;;;;;11.51;100.00;96734.75;4996078;28;20026;-67
2022/10/20 05:46:53;;;;;;;47.08;26.50;;;;;;;11.48;100.00;96737.03;4985302;28;20038;-69
2022/10/20 05:49:19;;;;;;;47.00;25.90;;;;;;;11.50;100.00;96735.88;4983434;28;20451;-69
2022/10/20 05:51:45;;;;;;;44.63;25.45;;;;;;;11.54;100.00;96740.28;4991609;28;20110;-69
2022/10/20 05:54:12;;;;;;;51.08;25.45;;;;;;;11.50;100.00;96750.38;4992377;28;20042;-68
2022/10/20 05:56:37;;;;;;;42.95;25.65;;;;;;;11.50;100.00;96747.66;4990826;28;20035;-68
2022/10/20 05:59:03;;;;;;;52.10;25.83;;;;;;;11.50;100.00;96741.38;4981842;28;20029;-68
2022/10/20 06:01:46;;;;;;;53.28;26.33;;;;;;;11.42;100.00;96735.00;4981095;28;20481;-68
2022/10/20 06:04:14;;;;;;;53.00;26.48;;;;;;;11.45;100.00;96723.28;4976394;28;20085;-68
2022/10/20 06:06:40;;;;;;;51.35;27.48;;;;;;;11.33;100.00;96721.56;4971965;28;20035;-68
2022/10/20 06:09:08;;;;;;;52.47;28.08;;;;;;;11.31;100.00;96718.41;4972372;28;20436;-68
2022/10/20 06:11:33;;;;;;;55.15;29.17;;;;;;;11.27;100.00;96714.81;4971160;28;20454;-68
2022/10/20 06:13:59;;;;;;;58.60;29.17;;;;;;;11.28;100.00;96722.66;4968071;28;20118;-68
2022/10/20 06:16:25;;;;;;;63.20;30.95;;;;;;;11.27;100.00;96723.03;4990057;28;20121;-68
2022/10/20 06:18:51;;;;;;;59.58;29.70;;;;;;;11.26;100.00;96732.44;4954675;28;20138;-68
2022/10/20 06:21:29;;;;;;;62.15;29.17;;;;;;;11.21;100.00;96741.75;4962627;28;20042;-68
2022/10/20 06:23:54;;;;;;;56.33;29.25;;;;;;;11.21;100.00;96741.75;4962897;28;20613;-68
2022/10/20 06:26:23;;;;;;;59.53;30.42;;;;;;;11.24;100.00;96759.44;4954454;28;20055;-68
2022/10/20 06:28:52;;;;;;;56.90;29.20;;;;;;;11.15;100.00;96753.44;4957116;28;20042;-68
2022/10/20 06:31:19;;;;;;;54.43;29.27;;;;;;;11.13;100.00;96756.53;4977178;28;20084;-68
2022/10/20 06:33:45;;;;;;;57.03;29.17;;;;;;;11.27;100.00;96762.22;4979266;28;20070;-68
2022/10/20 06:36:12;;;;;;;62.72;30.42;;;;;;;11.18;100.00;96752.66;4962091;28;20058;-68
2022/10/20 06:38:38;;;;;;;68.95;34.78;;;;;;;11.13;100.00;96742.03;4985823;28;20050;-68
2022/10/20 06:41:06;;;;;;;64.35;33.08;;;;;;;11.04;100.00;96740.34;4981368;28;20047;-67
2022/10/20 06:43:31;;;;;;;68.88;33.67;;;;;;;11.04;100.00;96743.09;4987372;28;20046;-68
2022/10/20 06:46:02;;;;;;;69.15;34.15;;;;;;;11.12;100.00;96734.97;4974984;28;20097;-68
2022/10/20 06:48:28;;;;;;;71.30;34.05;;;;;;;11.05;100.00;96746.59;4981209;28;20065;-68
2022/10/20 06:51:01;;;;;;;69.45;33.83;;;;;;;11.14;100.00;96749.88;4985874;28;20085;-68
2022/10/20 06:53:27;;;;;;;72.85;34.25;;;;;;;11.16;100.00;96747.56;4982964;28;20053;-69
2022/10/20 06:56:05;;;;;;;71.00;35.78;;;;;;;11.21;100.00;96730.78;4973283;28;20100;-68
2022/10/20 06:58:33;;;;;;;66.47;31.35;;;;;;;11.20;100.00;96740.19;4978777;28;20046;-68
2022/10/20 07:01:07;;;;;;;66.32;32.65;;;;;;;11.28;100.00;96735.59;4984858;28;20081;-68
2022/10/20 07:03:34;;;;;;;64.65;33.42;;;;;;;11.33;100.00;96748.22;4983060;28;20132;-68
2022/10/20 07:06:01;;;;;;;70.97;34.25;;;;;;;11.38;100.00;96747.84;4984056;28;20042;-67
2022/10/20 07:08:28;;;;;;;64.43;32.10;;;;;;;11.36;100.00;96733.72;4980473;28;20568;-67
2022/10/20 07:11:02;;;;;;;66.85;33.60;;;;;;;11.52;100.00;96750.03;4985432;28;20064;-69
2022/10/20 07:13:28;;;;;;;59.97;30.20;;;;;;;11.58;100.00;96749.34;4961851;28;20057;-67
2022/10/20 07:15:56;;;;;;;58.63;29.73;;;;;;;11.76;100.00;96754.25;4988406;28;20046;-68
2022/10/20 07:18:22;;;;;;;46.05;25.70;;;;;;;11.99;100.00;96768.69;4980138;28;20049;-68
2022/10/20 07:20:48;;;;;;;55.10;34.50;;;;;;;12.16;100.00;96761.03;4986186;28;20133;-68
2022/10/20 07:23:14;;;;;;;47.55;25.85;;;;;;;12.40;100.00;96751.47;4969349;28;20141;-68
2022/10/20 07:25:39;;;;;;;38.75;22.92;;;;;;;12.74;100.00;96752.16;4965550;28;20105;-68
2022/10/20 07:28:05;;;;;;;43.67;26.88;;;;;;;13.07;100.00;96750.50;4960631;28;20374;-67
2022/10/20 07:30:30;;;;;;;35.45;20.90;;;;;;;13.88;100.00;96742.31;4966022;28;20054;-68
2022/10/20 07:32:55;;;;;;;33.15;19.75;;;;;;;14.81;100.00;96747.28;4965042;28;20570;-68
2022/10/20 07:35:21;;;;;;;30.52;17.70;;;;;;;14.69;100.00;96740.16;4977261;28;20307;-68
2022/10/20 07:37:46;;;;;;;26.88;16.92;;;;;;;14.41;100.00;96730.66;4985394;28;20125;-68
2022/10/20 07:40:12;;;;;;;30.92;17.73;;;;;;;14.00;100.00;96721.91;4977253;28;20070;-68
2022/10/20 07:42:37;;;;;;;28.83;17.20;;;;;;;14.04;100.00;96715.22;4981862;28;20054;-67
2022/10/20 07:45:04;;;;;;;31.17;17.73;;;;;;;14.34;100.00;96717.66;4982100;28;20077;-67
2022/10/20 07:47:29;;;;;;;29.10;18.25;;;;;;;14.50;100.00;96720.03;4983045;28;20392;-68
2022/10/20 07:49:54;;;;;;;21.65;14.40;;;;;;;15.02;100.00;96716.16;4983041;28;20078;-67
2022/10/20 07:52:20;;;;;;;23.30;14.77;;;;;;;15.74;100.00;96732.56;4978134;28;20046;-68
2022/10/20 07:54:45;;;;;;;21.08;14.77;;;;;;;16.36;100.00;96728.34;4984510;28;20081;-67
2022/10/20 07:57:11;;;;;;;24.30;14.40;;;;;;;16.59;100.00;96747.16;4977540;28;20495;-67
2022/10/20 07:59:36;;;;;;;25.27;12.85;;;;;;;16.83;100.00;96739.91;4983267;28;20133;-68
2022/10/20 08:02:02;;;;;;;23.48;12.88;;;;;;;16.81;100.00;96745.03;4981449;28;20073;-68
2022/10/20 08:04:30;;;;;;;28.38;13.85;;;;;;;16.68;100.00;96741.97;4979841;28;20042;-68
2022/10/20 08:06:56;;;;;;;21.08;13.02;;;;;;;15.99;100.00;96740.75;4983456;28;20507;-68
2022/10/20 08:09:21;;;;;;;23.40;13.40;;;;;;;16.02;100.00;96745.50;4976089;28;20046;-68
2022/10/20 08:11:47;;;;;;;21.80;14.07;;;;;;;16.14;100.00;96753.31;4983257;28;20404;-67
2022/10/20 08:14:12;;;;;;;23.92;13.68;;;;;;;16.13;100.00;96746.22;4961636;28;20034;-68
2022/10/20 08:16:38;;;;;;;27.00;13.70;;;;;;;16.32;100.00;96739.41;4983282;28;20166;-68
2022/10/20 08:19:03;;;;;;;21.73;14.05;;;;;;;16.44;100.00;96735.41;4980654;28;20031;-68
2022/10/20 08:21:29;;;;;;;28.25;13.98;;;;;;;16.78;100.00;96743.06;4982399;28;20046;-68
2022/10/20 08:23:54;;;;;;;23.50;13.10;;;;;;;16.70;100.00;96747.09;4984400;28;20428;-67
2022/10/20 08:26:22;;;;;;;20.75;13.05;;;;;;;17.04;100.00;96747.25;4975741;28;20403;-66
2022/10/20 08:28:49;;;;;;;24.20;12.27;;;;;;;17.33;100.00;96756.06;4982071;28;20045;-66
2022/10/20 08:31:14;;;;;;;22.20;13.55;;;;;;;17.67;100.00;96771.19;4979823;28;20113;-69
2022/10/20 08:33:40;;;;;;;20.80;12.30;;;;;;;17.75;100.00;96772.66;4981313;28;20042;-67
2022/10/20 08:36:11;;;;;;;21.63;12.75;;;;;;;17.93;100.00;96764.19;4970747;28;20043;-66
2022/10/20 08:38:37;;;;;;;31.55;14.02;;;;;;;17.88;100.00;96761.84;4982779;28;20050;-66
2022/10/20 08:41:05;;;;;;;25.83;13.75;;;;;;;17.74;100.00;96765.56;4980476;28;20034;-63
2022/10/20 08:43:40;;;;;;;27.27;13.18;;;;;;;17.60;100.00;96760.97;4977758;28;20052;-67
2022/10/20 08:46:10;;;;;;;21.73;12.68;;;;;;;17.17;100.00;96762.13;4977245;28;20722;-66
2022/10/20 08:48:35;;;;;;;22.42;13.50;;;;;;;17.15;100.00;96758.22;4983452;28;20042;-67
2022/10/20 08:51:00;;;;;;;28.48;13.85;;;;;;;17.00;100.00;96763.88;4982559;28;20054;-67
2022/10/20 08:53:29;;;;;;;27.20;14.93;;;;;;;16.70;100.00;96763.69;4974556;28;20428;-67
2022/10/20 08:55:55;;;;;;;23.25;13.40;;;;;;;16.84;100.00;96747.00;4983072;28;20047;-67
2022/10/20 08:58:22;;;;;;;24.25;13.00;;;;;;;16.95;100.00;96739.41;4977758;28;20047;-67
2022/10/20 09:00:57;;;;;;;23.83;14.95;;;;;;;16.89;100.00;96745.78;4982634;28;20077;-68
2022/10/20 09:03:31;;;;;;;31.58;14.80;;;;;;;17.43;100.00;96754.41;4975718;28;20974;-67
2022/10/20 09:06:08;;;;;;;23.13;14.13;;;;;;;17.49;100.00;96757.50;4983063;28;20038;-67
2022/10/20 09:08:36;;;;;;;27.80;14.43;;;;;;;17.65;100.00;96766.06;4964302;28;20050;-67
2022/10/20 09:11:03;;;;;;;20.98;12.77;;;;;;;17.42;100.00;96783.28;4973984;28;20050;-67
2022/10/20 09:13:31;;;;;;;25.20;13.85;;;;;;;17.08;100.00;96789.50;4979943;28;20072;-67
2022/10/20 09:16:04;;;;;;;24.63;13.55;;;;;;;16.57;100.00;96802.84;4982318;28;20043;-67
2022/10/20 09:18:31;;;;;;;29.13;12.77;;;;;;;16.54;100.00;96808.41;4945524;28;20055;-67
2022/10/20 09:21:04;;;;;;;28.55;12.80;;;;;;;16.59;100.00;96802.47;4944078;28;20393;-67
2022/10/20 09:23:43;;;;;;;22.48;13.60;;;;;;;16.22;100.00;96809.34;4982139;28;20046;-67
2022/10/20 09:26:15;;;;;;;25.02;13.88;;;;;;;16.07;100.00;96830.72;4977991;28;20055;-66
2022/10/20 09:28:40;;;;;;;24.13;13.60;;;;;;;15.85;100.00;96830.78;4982412;28;20038;-67
2022/10/20 09:31:20;;;;;;;25.05;14.48;;;;;;;15.16;100.00;96842.22;4977960;28;20043;-67
2022/10/20 09:33:46;;;;;;;27.83;16.77;;;;;;;14.77;100.00;96841.00;4980344;28;20046;-67
2022/10/20 09:36:15;;;;;;;29.63;16.75;;;;;;;14.80;100.00;96834.72;4971903;28;20081;-67
2022/10/20 09:38:45;;;;;;;29.73;18.27;;;;;;;14.62;100.00;96844.91;4963445;28;20039;-67
2022/10/20 09:41:13;;;;;;;34.33;18.63;;;;;;;14.58;100.00;96841.34;4976261;28;20567;-68
2022/10/20 09:43:46;;;;;;;26.52;16.80;;;;;;;14.78;100.00;96828.00;4983413;28;20046;-68
2022/10/20 09:46:11;;;;;;;31.80;17.38;;;;;;;14.90;100.00;96836.69;4977480;28;20195;-68
2022/10/20 09:48:46;;;;;;;32.17;18.00;;;;;;;15.05;100.00;96825.69;4981801;28;20639;-68
2022/10/20 09:51:16;;;;;;;32.60;17.73;;;;;;;15.17;100.00;96828.06;4977088;28;20039;-68
2022/10/20 09:54:09;;;;;;;31.95;16.92;;;;;;;15.15;100.00;96824.91;4963862;28;20046;-68
2022/10/20 09:56:41;;;;;;;33.50;17.20;;;;;;;15.32;100.00;96815.03;4971748;28;20580;-68
2022/10/20 09:59:17;;;;;;;30.30;16.63;;;;;;;15.60;100.00;96810.69;4977181;28;20039;-68
2022/10/20 10:02:00;;;;;;;24.40;16.25;;;;;;;15.97;100.00;96809.44;4981913;28;20042;-68
2022/10/20 10:04:36;;;;;;;33.97;16.75;;;;;;;15.98;100.00;96833.91;4969591;28;20070;-68
2022/10/20 10:07:04;;;;;;;31.42;17.38;;;;;;;15.63;100.00;96840.28;4966351;28;20098;-67
2022/10/20 10:09:36;;;;;;;32.22;16.00;;;;;;;15.42;100.00;96846.59;4983802;28;20042;-67
2022/10/20 10:12:04;;;;;;;35.42;17.58;;;;;;;15.40;100.00;96851.72;4986011;28;20070;-69
2022/10/20 10:14:32;;;;;;;29.17;16.75;;;;;;;15.33;100.00;96844.22;4976635;28;20042;-67
2022/10/20 10:16:58;;;;;;;27.38;16.70;;;;;;;15.33;100.00;96846.19;4982518;28;20038;-66
2022/10/20 10:19:31;;;;;;;26.35;16.38;;;;;;;15.49;100.00;96847.38;4966049;28;20046;-67
2022/10/20 10:22:00;;;;;;;28.00;16.13;;;;;;;15.74;100.00;96837.50;4966391;28;20745;-67
2022/10/20 10:24:41;;;;;;;28.33;14.85;;;;;;;16.12;100.00;96837.81;4979828;28;20054;-67
2022/10/20 10:27:25;;;;;;;24.58;15.32;;;;;;;16.43;100.00;96834.13;4974359;28;20046;-67
2022/10/20 10:29:53;;;;;;;27.23;15.30;;;;;;;16.84;100.00;96826.44;4979847;28;20085;-67
2022/10/20 10:32:27;;;;;;;25.77;13.93;;;;;;;16.85;100.00;96822.47;4980982;28;20054;-68
2022/10/20 10:35:13;;;;;;;23.15;14.02;;;;;;;17.35;100.00;96811.81;4979324;28;20047;-68
2022/10/20 10:37:41;;;;;;;31.95;13.98;;;;;;;17.50;100.00;96808.91;4982965;28;20714;-67
2022/10/20 10:40:30;;;;;;;27.27;12.55;;;;;;;17.89;100.00;96805.78;4980806;28;20039;-67
2022/10/20 10:43:11;;;;;;;25.00;13.15;;;;;;;18.05;100.00;96813.53;4983232;28;20117;-68
2022/10/20 10:46:15;;;;;;;22.20;12.15;;;;;;;18.33;100.00;96822.72;4984163;28;20057;-68
2022/10/20 10:49:03;;;;;;;22.08;13.38;;;;;;;18.64;100.00;96820.72;4908276;29;20078;-68
2022/10/20 10:51:45;;;;;;;29.33;12.82;;;;;;;18.36;100.00;96823.88;4981135;28;20060;-68
2022/10/20 10:54:20;;;;;;;25.65;13.38;;;;;;;18.61;100.00;96816.00;4977920;28;20058;-68
2022/10/20 10:56:55;;;;;;;22.13;11.80;;;;;;;18.87;100.00;96824.78;4960660;28;20424;-67
2022/10/20 10:59:26;;;;;;;27.50;14.27;;;;;;;19.02;100.00;96822.59;4970446;28;20129;-67
2022/10/20 11:02:34;;;;;;;29.95;13.52;;;;;;;18.35;100.00;96823.09;4985521;28;20046;-66
2022/10/20 11:05:20;;;;;;;23.95;13.60;;;;;;;17.55;100.00;96809.25;4971626;28;20074;-68
2022/10/20 11:07:55;;;;;;;27.60;13.85;;;;;;;17.50;100.00;96806.16;4970344;28;20046;-68
2022/10/20 11:10:36;;;;;;;24.45;12.98;;;;;;;17.43;100.00;96803.44;4979154;28;20042;-68
2022/10/20 11:13:24;;;;;;;27.45;13.30;;;;;;;17.02;100.00;96793.13;4984237;28;20042;-65
2022/10/20 11:15:52;;;;;;;27.95;14.20;;;;;;;17.01;100.00;96795.09;4978602;28;20042;-68
2022/10/20 11:18:26;;;;;;;27.88;14.43;;;;;;;17.23;100.00;96794.91;4980517;28;20494;-68